createdAt,value
2022-09-28T00:03:59.891Z,8.77
2022-09-28T00:09:02.356Z,8.68
2022-09-28T00:14:03.773Z,8.84
2022-09-28T00:19:05.212Z,8.81
2022-09-28T00:24:15.202Z,8.82
2022-09-28T00:29:27.150Z,8.83
2022-09-28T00:34:28.327Z,8.83
2022-09-28T00:39:31.652Z,8.77
2022-09-28T00:44:40.381Z,8.77
2022-09-28T00:49:44.987Z,8.78
2022-09-28T00:54:48.852Z,8.61
2022-09-28T00:59:50.509Z,8.67
2022-09-28T01:04:52.258Z,8.64
2022-09-28T01:09:56.391Z,8.54
2022-09-28T01:14:59.246Z,8.61
2022-09-28T01:20:14.062Z,8.49
2022-09-28T01:25:26.059Z,8.30
2022-09-28T01:30:28.195Z,8.27
2022-09-28T01:35:35.590Z,8.27
2022-09-28T01:40:38.478Z,8.24
2022-09-28T01:45:45.715Z,8.26
2022-09-28T01:50:51.628Z,8.24
2022-09-28T01:55:58.798Z,8.18
2022-09-28T02:01:06.163Z,8.06
2022-09-28T02:06:14.392Z,8.21
2022-09-28T02:11:18.051Z,8.27
2022-09-28T02:16:27.135Z,8.35
2022-09-28T02:21:32.503Z,8.34
2022-09-28T02:26:39.034Z,8.33
2022-09-28T02:31:41.372Z,8.42
2022-09-28T02:36:44.939Z,8.40
2022-09-28T02:42:02.835Z,8.40
2022-09-28T02:47:16.553Z,8.49
2022-09-28T02:52:42.967Z,8.50
2022-09-28T02:57:58.316Z,8.37
2022-09-28T03:03:10.409Z,8.41
2022-09-28T03:08:21.429Z,8.35
2022-09-28T03:13:22.678Z,8.28
2022-09-28T03:18:24.827Z,8.30
2022-09-28T03:23:25.706Z,8.20
2022-09-28T03:28:28.209Z,8.11
2022-09-28T03:33:30.839Z,8.05
2022-09-28T03:38:31.649Z,8.01
2022-09-28T03:43:32.905Z,8.11
2022-09-28T03:48:37.366Z,8.22
2022-09-28T03:53:38.207Z,8.26
2022-09-28T03:58:39.799Z,8.36
2022-09-28T04:03:41.815Z,8.34
2022-09-28T04:08:43.094Z,8.38
2022-09-28T04:13:44.116Z,8.68
2022-09-28T04:18:48.889Z,8.87
2022-09-28T04:24:10.698Z,9.00
2022-09-28T04:29:17.821Z,9.03
2022-09-28T04:34:29.796Z,9.05
2022-09-28T04:39:32.638Z,8.59
2022-09-28T04:44:33.393Z,8.27
2022-09-28T04:49:41.442Z,8.22
2022-09-28T04:54:44.830Z,8.06
2022-09-28T04:59:45.715Z,8.05
2022-09-28T05:04:47.883Z,8.00
2022-09-28T05:10:07.146Z,7.95
2022-09-28T05:15:09.484Z,7.84
2022-09-28T05:20:11.869Z,7.93
2022-09-28T05:25:12.768Z,7.94
2022-09-28T05:30:35.952Z,7.94
2022-09-28T05:36:00.905Z,8.01
2022-09-28T05:41:06.374Z,8.09
2022-09-28T05:46:08.211Z,8.18
2022-09-28T05:51:13.288Z,8.26
2022-09-28T05:56:13.924Z,8.34
2022-09-28T06:01:18.092Z,8.37
2022-09-28T06:06:21.060Z,8.53
2022-09-28T06:11:25.082Z,8.63
2022-09-28T06:16:26.684Z,8.67
2022-09-28T06:21:28.847Z,8.86
2022-09-28T06:26:29.462Z,8.75
2022-09-28T06:31:31.367Z,8.79
2022-09-28T06:36:34.557Z,8.98
2022-09-28T06:41:36.322Z,9.04
2022-09-28T06:46:47.199Z,9.22
2022-09-28T06:51:52.357Z,9.43
2022-09-28T06:56:56.115Z,9.42
2022-09-28T07:01:57.115Z,9.40
2022-09-28T07:07:29.564Z,9.40
2022-09-28T07:12:53.315Z,9.59
2022-09-28T07:18:04.246Z,9.59
2022-09-28T07:23:18.344Z,9.69
2022-09-28T07:28:44.811Z,9.69
2022-09-28T07:34:05.036Z,9.52
2022-09-28T07:39:28.679Z,9.51
2022-09-28T07:44:29.828Z,9.45
2022-09-28T07:49:32.312Z,9.47
2022-09-28T07:54:52.095Z,9.53
2022-09-28T08:00:18.955Z,9.61
2022-09-28T08:05:21.754Z,9.52
2022-09-28T08:10:24.000Z,9.62
2022-09-28T08:15:51.818Z,9.43
2022-09-28T08:21:25.438Z,9.25
2022-09-28T08:26:29.044Z,9.19
2022-09-28T08:31:31.111Z,8.97
2022-09-28T08:36:45.661Z,8.88
2022-09-28T08:42:23.655Z,8.64
2022-09-28T08:48:10.864Z,8.48
2022-09-28T08:53:53.050Z,8.44
2022-09-28T08:59:01.966Z,8.23
2022-09-28T09:04:04.314Z,8.22
2022-09-28T09:09:14.821Z,8.15
2022-09-28T09:14:38.960Z,8.08
2022-09-28T09:19:52.369Z,8.06
2022-09-28T09:25:20.629Z,8.39
2022-09-28T09:30:30.019Z,8.65
2022-09-28T09:36:00.376Z,8.64
2022-09-28T09:41:40.552Z,8.54
2022-09-28T09:46:59.697Z,8.54
2022-09-28T09:52:16.180Z,8.55
2022-09-28T09:57:21.333Z,8.37
2022-09-28T10:02:36.101Z,8.21
2022-09-28T10:07:51.939Z,8.09
2022-09-28T10:12:53.660Z,8.03
2022-09-28T10:17:58.168Z,8.33
2022-09-28T10:23:31.470Z,8.64
2022-09-28T10:28:40.636Z,8.62
2022-09-28T10:33:43.122Z,8.67
2022-09-28T10:38:48.807Z,8.74
2022-09-28T10:44:11.050Z,8.79
2022-09-28T10:49:23.135Z,8.90
2022-09-28T10:54:31.099Z,8.90
2022-09-28T10:59:39.877Z,9.06
2022-09-28T11:05:00.139Z,9.40
2022-09-28T11:10:05.708Z,9.41
2022-09-28T11:15:18.216Z,9.56
2022-09-28T11:20:34.087Z,9.28
2022-09-28T11:25:37.164Z,8.86
2022-09-28T11:30:45.888Z,8.81
2022-09-28T11:36:38.198Z,9.19
2022-09-28T11:42:00.138Z,9.67
2022-09-28T11:47:16.333Z,10.06
2022-09-28T11:52:23.742Z,10.69
2022-09-28T11:57:29.541Z,11.06
2022-09-28T12:02:35.793Z,11.20
2022-09-28T12:07:47.593Z,11.45
2022-09-28T12:13:14.877Z,11.49
2022-09-28T12:18:21.933Z,10.99
2022-09-28T12:23:30.082Z,10.50
2022-09-28T12:28:35.994Z,10.40
2022-09-28T12:33:38.994Z,10.30
2022-09-28T12:39:14.868Z,10.61
2022-09-28T12:44:40.358Z,10.87
2022-09-28T12:55:35.262Z,10.92
2022-09-28T13:00:47.841Z,10.73
2022-09-28T13:06:22.941Z,10.49
2022-09-28T13:11:33.581Z,10.17
2022-09-28T13:16:43.800Z,10.05
2022-09-28T13:21:53.577Z,10.22
2022-09-28T13:27:00.425Z,10.32
2022-09-28T13:32:03.238Z,10.24
2022-09-28T13:37:20.905Z,9.96
2022-09-28T13:42:37.716Z,9.87
2022-09-28T13:47:53.850Z,9.91
2022-09-28T13:53:08.780Z,9.78
2022-09-28T13:58:21.693Z,9.65
2022-09-28T14:03:42.207Z,9.53
2022-09-28T14:08:46.095Z,9.76
2022-09-28T14:14:25.031Z,9.79
2022-09-28T14:19:31.649Z,9.98
2022-09-28T14:24:45.990Z,9.98
2022-09-28T14:29:51.899Z,9.79
2022-09-28T14:35:02.310Z,9.69
2022-09-28T14:40:28.361Z,9.14
2022-09-28T14:45:38.567Z,8.96
2022-09-28T14:50:39.623Z,9.45
2022-09-28T14:55:49.895Z,9.61
2022-09-28T15:00:57.508Z,9.42
2022-09-28T15:05:58.636Z,9.43
2022-09-28T15:11:03.196Z,9.48
2022-09-28T15:16:11.116Z,9.58
2022-09-28T15:21:19.086Z,9.66
2022-09-28T15:26:24.135Z,9.81
2022-09-28T15:31:29.097Z,9.92
2022-09-28T15:36:31.688Z,9.98
2022-09-28T15:41:33.000Z,9.77
2022-09-28T15:46:37.195Z,9.54
2022-09-28T15:51:52.247Z,9.67
2022-09-28T15:56:56.921Z,9.65
2022-09-28T16:02:15.985Z,9.53
2022-09-28T16:07:34.541Z,9.49
2022-09-28T16:12:46.279Z,9.58
2022-09-28T16:17:53.222Z,9.59
2022-09-28T16:22:54.506Z,9.55
2022-09-28T16:27:56.515Z,9.55
2022-09-28T16:33:01.381Z,9.58
2022-09-28T16:38:11.860Z,9.46
2022-09-28T16:43:24.892Z,9.56
2022-09-28T16:48:29.240Z,9.95
2022-09-28T16:53:47.655Z,9.74
2022-09-28T16:58:50.343Z,9.70
2022-09-28T17:03:52.606Z,9.45
2022-09-28T17:08:56.585Z,9.75
2022-09-28T17:13:58.927Z,9.91
2022-09-28T17:19:03.019Z,9.82
2022-09-28T17:24:05.035Z,9.54
2022-09-28T17:29:08.714Z,9.32
2022-09-28T17:34:11.874Z,9.34
2022-09-28T17:39:13.555Z,9.33
2022-09-28T17:44:16.248Z,9.27
2022-09-28T17:49:19.206Z,9.15
2022-09-28T17:54:21.289Z,9.10
2022-09-28T17:59:22.098Z,9.02
2022-09-28T18:04:50.121Z,8.89
2022-09-28T18:09:45.035Z,8.70
2022-09-28T18:14:47.109Z,8.56
2022-09-28T18:19:49.533Z,8.39
2022-09-28T18:24:51.014Z,8.22
2022-09-28T18:29:52.082Z,8.16
2022-09-28T18:34:54.209Z,8.03
2022-09-28T18:39:54.955Z,7.89
2022-09-28T18:44:58.307Z,7.80
2022-09-28T18:50:00.487Z,7.76
2022-09-28T18:55:01.232Z,7.86
2022-09-28T19:00:02.972Z,7.91
2022-09-28T19:05:08.166Z,7.95
2022-09-28T19:10:09.814Z,7.74
2022-09-28T19:15:10.844Z,7.63
2022-09-28T19:20:12.995Z,7.59
2022-09-28T19:25:15.908Z,7.48
2022-09-28T19:30:16.754Z,7.39
2022-09-28T19:35:18.888Z,7.29
2022-09-28T19:40:19.763Z,7.29
2022-09-28T19:45:20.589Z,7.32
2022-09-28T19:50:23.113Z,7.30
2022-09-28T19:55:25.046Z,7.17
2022-09-28T20:00:25.904Z,7.03
2022-09-28T20:05:28.035Z,6.96
2022-09-28T20:10:28.809Z,6.89
2022-09-28T20:15:29.944Z,6.85
2022-09-28T20:20:32.043Z,6.75
2022-09-28T20:25:32.771Z,6.67
2022-09-28T20:30:34.016Z,6.60
2022-09-28T20:35:36.495Z,6.55
2022-09-28T20:40:37.597Z,6.51
2022-09-28T20:45:38.393Z,6.46
2022-09-28T20:50:40.635Z,6.43
2022-09-28T20:55:41.386Z,6.31
2022-09-28T21:00:42.132Z,6.28
2022-09-28T21:05:44.204Z,6.23
2022-09-28T21:10:45.575Z,6.19
2022-09-28T21:15:46.356Z,6.11
2022-09-28T21:20:49.189Z,5.98
2022-09-28T21:25:49.972Z,5.96
2022-09-28T21:30:52.797Z,5.89
2022-09-28T21:35:55.167Z,5.85
2022-09-28T21:40:57.154Z,5.79
2022-09-28T21:45:58.343Z,5.75
2022-09-28T21:51:02.872Z,5.71
2022-09-28T21:56:05.656Z,5.70
2022-09-28T22:01:09.082Z,5.66
2022-09-28T22:06:12.144Z,5.60
2022-09-28T22:11:14.745Z,5.54
2022-09-28T22:16:17.264Z,5.57
2022-09-28T22:21:21.519Z,5.55
2022-09-28T22:26:26.011Z,5.44
2022-09-28T22:31:29.173Z,5.43
2022-09-28T22:36:31.596Z,5.33
2022-09-28T22:41:32.829Z,5.33
2022-09-28T22:46:33.716Z,5.30
2022-09-28T22:51:36.032Z,5.22
2022-09-28T22:56:36.803Z,5.22
2022-09-28T23:01:37.606Z,5.15
2022-09-28T23:06:39.795Z,5.14
2022-09-28T23:11:40.518Z,5.14
2022-09-28T23:16:41.285Z,5.17
2022-09-28T23:21:43.420Z,5.14
2022-09-28T23:26:44.149Z,5.12
2022-09-28T23:31:45.452Z,5.08
2022-09-28T23:36:48.054Z,5.05
2022-09-28T23:41:48.797Z,5.01
2022-09-28T23:46:51.323Z,5.02
2022-09-28T23:51:53.832Z,4.98
2022-09-28T23:56:54.569Z,4.94
